sensor_id;sensor_type;location;lat;lon;timestamp;P1;durP1;ratioP1;P2;durP2;ratioP2
6197;SDS011;3132;42.622;23.328;2023-03-20T00:00:30;10.77;;;10.27;;
6197;SDS011;3132;42.622;23.328;2023-03-20T00:02:59;11.33;;;10.43;;
6197;SDS011;3132;42.622;23.328;2023-03-20T00:05:26;11.27;;;10.47;;
6197;SDS011;3132;42.622;23.328;2023-03-20T00:07:52;10.93;;;10.33;;
6197;SDS011;3132;42.622;23.328;2023-03-20T00:10:18;9.77;;;9.17;;
6197;SDS011;3132;42.622;23.328;2023-03-20T00:12:45;12.07;;;11.27;;
6197;SDS011;3132;42.622;23.328;2023-03-20T00:15:23;11.13;;;10.43;;
6197;SDS011;3132;42.622;23.328;2023-03-20T00:17:49;11.37;;;9.67;;
6197;SDS011;3132;42.622;23.328;2023-03-20T00:20:15;13.03;;;9.83;;
6197;SDS011;3132;42.622;23.328;2023-03-20T00:22:41;10.77;;;10.07;;
6197;SDS011;3132;42.622;23.328;2023-03-20T00:25:08;10.80;;;9.87;;
6197;SDS011;3132;42.622;23.328;2023-03-20T00:27:37;10.47;;;9.77;;
6197;SDS011;3132;42.622;23.328;2023-03-20T00:30:07;10.77;;;10.03;;
6197;SDS011;3132;42.622;23.328;2023-03-20T00:32:42;11.43;;;10.53;;
6197;SDS011;3132;42.622;23.328;2023-03-20T00:35:18;11.30;;;10.50;;
6197;SDS011;3132;42.622;23.328;2023-03-20T00:37:49;9.70;;;8.90;;
6197;SDS011;3132;42.622;23.328;2023-03-20T00:40:15;11.63;;;10.70;;
6197;SDS011;3132;42.622;23.328;2023-03-20T00:42:41;11.73;;;10.77;;
6197;SDS011;3132;42.622;23.328;2023-03-20T00:45:12;12.57;;;11.33;;
6197;SDS011;3132;42.622;23.328;2023-03-20T00:47:41;11.13;;;10.43;;
6197;SDS011;3132;42.622;23.328;2023-03-20T00:50:14;11.57;;;10.50;;
6197;SDS011;3132;42.622;23.328;2023-03-20T00:52:45;13.43;;;12.23;;
6197;SDS011;3132;42.622;23.328;2023-03-20T00:55:10;10.80;;;10.10;;
6197;SDS011;3132;42.622;23.328;2023-03-20T00:57:40;11.97;;;11.07;;
6197;SDS011;3132;42.622;23.328;2023-03-20T01:02:54;11.60;;;10.90;;
6197;SDS011;3132;42.622;23.328;2023-03-20T01:05:22;10.43;;;9.73;;
6197;SDS011;3132;42.622;23.328;2023-03-20T01:07:48;10.70;;;9.80;;
6197;SDS011;3132;42.622;23.328;2023-03-20T01:10:13;10.53;;;9.90;;
6197;SDS011;3132;42.622;23.328;2023-03-20T01:12:39;11.37;;;10.47;;
6197;SDS011;3132;42.622;23.328;2023-03-20T01:15:16;10.63;;;9.87;;
6197;SDS011;3132;42.622;23.328;2023-03-20T01:17:47;10.50;;;9.80;;
6197;SDS011;3132;42.622;23.328;2023-03-20T01:20:13;10.77;;;9.93;;
6197;SDS011;3132;42.622;23.328;2023-03-20T01:22:51;10.57;;;9.80;;
6197;SDS011;3132;42.622;23.328;2023-03-20T01:25:16;10.63;;;10.00;;
6197;SDS011;3132;42.622;23.328;2023-03-20T01:27:43;10.30;;;9.40;;
6197;SDS011;3132;42.622;23.328;2023-03-20T01:32:47;10.27;;;9.47;;
6197;SDS011;3132;42.622;23.328;2023-03-20T01:35:14;11.63;;;10.77;;
6197;SDS011;3132;42.622;23.328;2023-03-20T01:37:41;11.97;;;10.70;;
6197;SDS011;3132;42.622;23.328;2023-03-20T01:40:11;11.70;;;10.60;;
6197;SDS011;3132;42.622;23.328;2023-03-20T01:42:43;14.47;;;10.70;;
6197;SDS011;3132;42.622;23.328;2023-03-20T01:45:12;10.93;;;10.23;;
6197;SDS011;3132;42.622;23.328;2023-03-20T01:47:42;12.00;;;10.73;;
6197;SDS011;3132;42.622;23.328;2023-03-20T01:53:04;10.93;;;10.17;;
6197;SDS011;3132;42.622;23.328;2023-03-20T01:55:34;11.70;;;10.77;;
6197;SDS011;3132;42.622;23.328;2023-03-20T01:58:03;10.97;;;10.27;;
6197;SDS011;3132;42.622;23.328;2023-03-20T02:00:32;10.37;;;9.70;;
6197;SDS011;3132;42.622;23.328;2023-03-20T02:02:59;11.47;;;10.57;;
6197;SDS011;3132;42.622;23.328;2023-03-20T02:05:24;10.87;;;10.20;;
6197;SDS011;3132;42.622;23.328;2023-03-20T02:10:45;11.17;;;10.47;;
6197;SDS011;3132;42.622;23.328;2023-03-20T02:13:11;11.90;;;11.00;;
6197;SDS011;3132;42.622;23.328;2023-03-20T02:18:27;11.67;;;10.97;;
6197;SDS011;3132;42.622;23.328;2023-03-20T02:35:10;10.90;;;10.20;;
6197;SDS011;3132;42.622;23.328;2023-03-20T02:56:13;12.33;;;11.23;;
6197;SDS011;3132;42.622;23.328;2023-03-20T02:58:47;14.00;;;12.83;;
6197;SDS011;3132;42.622;23.328;2023-03-20T03:01:18;11.50;;;10.67;;
6197;SDS011;3132;42.622;23.328;2023-03-20T03:08:51;11.83;;;10.90;;
6197;SDS011;3132;42.622;23.328;2023-03-20T03:11:24;10.80;;;9.77;;
6197;SDS011;3132;42.622;23.328;2023-03-20T03:13:53;12.17;;;11.17;;
6197;SDS011;3132;42.622;23.328;2023-03-20T03:16:25;12.50;;;11.50;;
6197;SDS011;3132;42.622;23.328;2023-03-20T03:18:57;11.67;;;10.87;;
6197;SDS011;3132;42.622;23.328;2023-03-20T03:21:32;10.90;;;10.27;;
6197;SDS011;3132;42.622;23.328;2023-03-20T03:24:01;11.20;;;10.57;;
6197;SDS011;3132;42.622;23.328;2023-03-20T03:26:28;10.03;;;9.33;;
6197;SDS011;3132;42.622;23.328;2023-03-20T03:28:58;10.37;;;9.67;;
6197;SDS011;3132;42.622;23.328;2023-03-20T03:31:28;10.70;;;9.80;;
6197;SDS011;3132;42.622;23.328;2023-03-20T03:33:56;11.00;;;10.13;;
6197;SDS011;3132;42.622;23.328;2023-03-20T03:42:06;10.33;;;9.83;;
6197;SDS011;3132;42.622;23.328;2023-03-20T03:44:47;10.23;;;9.73;;
6197;SDS011;3132;42.622;23.328;2023-03-20T03:47:18;10.23;;;9.43;;
6197;SDS011;3132;42.622;23.328;2023-03-20T03:49:51;10.90;;;10.30;;
6197;SDS011;3132;42.622;23.328;2023-03-20T03:52:22;10.87;;;9.90;;
6197;SDS011;3132;42.622;23.328;2023-03-20T03:54:52;10.70;;;10.10;;
6197;SDS011;3132;42.622;23.328;2023-03-20T03:57:25;9.73;;;9.13;;
6197;SDS011;3132;42.622;23.328;2023-03-20T03:59:55;10.47;;;9.93;;
6197;SDS011;3132;42.622;23.328;2023-03-20T04:02:23;10.70;;;9.20;;
6197;SDS011;3132;42.622;23.328;2023-03-20T04:04:50;9.47;;;8.87;;
6197;SDS011;3132;42.622;23.328;2023-03-20T04:07:17;11.20;;;10.30;;
6197;SDS011;3132;42.622;23.328;2023-03-20T04:09:43;10.87;;;10.27;;
6197;SDS011;3132;42.622;23.328;2023-03-20T04:14:57;10.40;;;9.67;;
6197;SDS011;3132;42.622;23.328;2023-03-20T04:17:23;10.13;;;9.40;;
6197;SDS011;3132;42.622;23.328;2023-03-20T04:19:48;10.63;;;10.03;;
6197;SDS011;3132;42.622;23.328;2023-03-20T04:22:14;10.23;;;9.73;;
6197;SDS011;3132;42.622;23.328;2023-03-20T04:24:39;9.80;;;9.10;;
6197;SDS011;3132;42.622;23.328;2023-03-20T04:27:05;10.93;;;10.23;;
6197;SDS011;3132;42.622;23.328;2023-03-20T04:29:30;9.60;;;9.10;;
6197;SDS011;3132;42.622;23.328;2023-03-20T04:31:55;10.30;;;9.47;;
6197;SDS011;3132;42.622;23.328;2023-03-20T04:34:21;11.37;;;10.50;;
6197;SDS011;3132;42.622;23.328;2023-03-20T04:36:47;10.67;;;9.97;;
6197;SDS011;3132;42.622;23.328;2023-03-20T04:39:12;11.70;;;10.93;;
6197;SDS011;3132;42.622;23.328;2023-03-20T04:41:38;11.67;;;10.97;;
6197;SDS011;3132;42.622;23.328;2023-03-20T04:44:03;10.40;;;9.70;;
6197;SDS011;3132;42.622;23.328;2023-03-20T04:46:29;11.40;;;10.60;;
6197;SDS011;3132;42.622;23.328;2023-03-20T04:48:54;10.80;;;10.20;;
6197;SDS011;3132;42.622;23.328;2023-03-20T04:51:19;10.80;;;10.20;;
6197;SDS011;3132;42.622;23.328;2023-03-20T04:53:45;11.40;;;10.60;;
6197;SDS011;3132;42.622;23.328;2023-03-20T04:56:11;12.87;;;11.93;;
6197;SDS011;3132;42.622;23.328;2023-03-20T04:58:37;10.73;;;10.23;;
6197;SDS011;3132;42.622;23.328;2023-03-20T05:01:02;11.33;;;10.60;;
6197;SDS011;3132;42.622;23.328;2023-03-20T05:03:28;11.67;;;11.00;;
6197;SDS011;3132;42.622;23.328;2023-03-20T05:05:53;11.50;;;10.50;;
6197;SDS011;3132;42.622;23.328;2023-03-20T05:08:18;12.10;;;11.27;;
6197;SDS011;3132;42.622;23.328;2023-03-20T05:10:44;12.33;;;11.53;;
6197;SDS011;3132;42.622;23.328;2023-03-20T05:13:10;11.60;;;10.57;;
6197;SDS011;3132;42.622;23.328;2023-03-20T05:15:35;11.50;;;10.80;;
6197;SDS011;3132;42.622;23.328;2023-03-20T05:18:02;11.43;;;10.53;;
6197;SDS011;3132;42.622;23.328;2023-03-20T05:20:27;10.97;;;10.33;;
6197;SDS011;3132;42.622;23.328;2023-03-20T05:22:53;11.00;;;10.33;;
6197;SDS011;3132;42.622;23.328;2023-03-20T05:25:18;11.47;;;10.53;;
6197;SDS011;3132;42.622;23.328;2023-03-20T05:27:44;13.00;;;11.83;;
6197;SDS011;3132;42.622;23.328;2023-03-20T05:30:10;13.67;;;12.57;;
6197;SDS011;3132;42.622;23.328;2023-03-20T05:32:36;14.27;;;12.97;;
6197;SDS011;3132;42.622;23.328;2023-03-20T05:35:03;15.53;;;13.93;;
6197;SDS011;3132;42.622;23.328;2023-03-20T05:37:28;18.70;;;14.17;;
6197;SDS011;3132;42.622;23.328;2023-03-20T05:39:54;19.33;;;15.83;;
6197;SDS011;3132;42.622;23.328;2023-03-20T05:42:19;23.23;;;16.10;;
6197;SDS011;3132;42.622;23.328;2023-03-20T05:44:45;17.23;;;15.50;;
6197;SDS011;3132;42.622;23.328;2023-03-20T05:47:10;21.20;;;17.23;;
6197;SDS011;3132;42.622;23.328;2023-03-20T05:49:36;18.47;;;16.47;;
6197;SDS011;3132;42.622;23.328;2023-03-20T05:52:01;19.93;;;16.47;;
6197;SDS011;3132;42.622;23.328;2023-03-20T05:54:27;20.73;;;15.73;;
6197;SDS011;3132;42.622;23.328;2023-03-20T05:56:52;21.00;;;17.40;;
6197;SDS011;3132;42.622;23.328;2023-03-20T05:59:17;22.70;;;16.17;;
6197;SDS011;3132;42.622;23.328;2023-03-20T06:01:43;18.93;;;16.43;;
6197;SDS011;3132;42.622;23.328;2023-03-20T06:04:08;18.30;;;16.40;;
6197;SDS011;3132;42.622;23.328;2023-03-20T06:06:34;18.73;;;16.77;;
6197;SDS011;3132;42.622;23.328;2023-03-20T06:09:02;17.13;;;15.23;;
6197;SDS011;3132;42.622;23.328;2023-03-20T06:11:28;17.87;;;16.00;;
6197;SDS011;3132;42.622;23.328;2023-03-20T06:13:53;17.70;;;15.87;;
6197;SDS011;3132;42.622;23.328;2023-03-20T06:16:19;18.93;;;15.37;;
6197;SDS011;3132;42.622;23.328;2023-03-20T06:18:45;18.43;;;15.90;;
6197;SDS011;3132;42.622;23.328;2023-03-20T06:21:11;20.93;;;17.77;;
6197;SDS011;3132;42.622;23.328;2023-03-20T06:23:37;21.30;;;16.77;;
6197;SDS011;3132;42.622;23.328;2023-03-20T06:26:02;20.40;;;16.70;;
6197;SDS011;3132;42.622;23.328;2023-03-20T06:28:28;17.60;;;15.63;;
6197;SDS011;3132;42.622;23.328;2023-03-20T06:30:54;17.20;;;15.57;;
6197;SDS011;3132;42.622;23.328;2023-03-20T06:33:19;16.00;;;14.30;;
6197;SDS011;3132;42.622;23.328;2023-03-20T06:35:46;18.73;;;14.60;;
6197;SDS011;3132;42.622;23.328;2023-03-20T06:38:12;19.27;;;15.07;;
6197;SDS011;3132;42.622;23.328;2023-03-20T06:40:38;25.43;;;16.53;;
6197;SDS011;3132;42.622;23.328;2023-03-20T06:43:03;18.70;;;16.80;;
6197;SDS011;3132;42.622;23.328;2023-03-20T06:45:29;19.00;;;16.97;;
6197;SDS011;3132;42.622;23.328;2023-03-20T06:47:54;22.60;;;16.53;;
6197;SDS011;3132;42.622;23.328;2023-03-20T06:50:20;22.50;;;18.27;;
6197;SDS011;3132;42.622;23.328;2023-03-20T06:52:46;26.67;;;18.57;;
6197;SDS011;3132;42.622;23.328;2023-03-20T06:55:11;25.80;;;18.43;;
6197;SDS011;3132;42.622;23.328;2023-03-20T06:57:37;30.80;;;17.80;;
6197;SDS011;3132;42.622;23.328;2023-03-20T07:00:03;23.47;;;17.30;;
6197;SDS011;3132;42.622;23.328;2023-03-20T07:02:29;19.33;;;15.87;;
6197;SDS011;3132;42.622;23.328;2023-03-20T07:04:55;21.17;;;16.10;;
6197;SDS011;3132;42.622;23.328;2023-03-20T07:07:20;17.33;;;15.53;;
6197;SDS011;3132;42.622;23.328;2023-03-20T07:09:46;19.43;;;16.10;;
6197;SDS011;3132;42.622;23.328;2023-03-20T07:12:12;18.53;;;16.73;;
6197;SDS011;3132;42.622;23.328;2023-03-20T07:14:39;26.57;;;15.87;;
6197;SDS011;3132;42.622;23.328;2023-03-20T07:17:07;17.77;;;15.67;;
6197;SDS011;3132;42.622;23.328;2023-03-20T07:19:37;17.77;;;15.43;;
6197;SDS011;3132;42.622;23.328;2023-03-20T07:22:04;21.47;;;16.57;;
6197;SDS011;3132;42.622;23.328;2023-03-20T07:24:31;19.53;;;17.07;;
6197;SDS011;3132;42.622;23.328;2023-03-20T07:26:58;22.47;;;16.33;;
6197;SDS011;3132;42.622;23.328;2023-03-20T07:29:24;21.30;;;16.63;;
6197;SDS011;3132;42.622;23.328;2023-03-20T07:31:49;24.60;;;18.00;;
6197;SDS011;3132;42.622;23.328;2023-03-20T07:34:14;25.17;;;18.60;;
6197;SDS011;3132;42.622;23.328;2023-03-20T07:36:40;25.30;;;18.90;;
6197;SDS011;3132;42.622;23.328;2023-03-20T07:39:06;31.03;;;19.20;;
6197;SDS011;3132;42.622;23.328;2023-03-20T07:41:33;23.80;;;19.03;;
6197;SDS011;3132;42.622;23.328;2023-03-20T07:43:59;32.57;;;19.33;;
6197;SDS011;3132;42.622;23.328;2023-03-20T07:46:25;29.37;;;18.50;;
6197;SDS011;3132;42.622;23.328;2023-03-20T07:48:50;24.13;;;16.63;;
6197;SDS011;3132;42.622;23.328;2023-03-20T07:51:16;22.00;;;16.47;;
6197;SDS011;3132;42.622;23.328;2023-03-20T07:53:42;21.03;;;18.20;;
6197;SDS011;3132;42.622;23.328;2023-03-20T07:56:07;19.80;;;17.70;;
6197;SDS011;3132;42.622;23.328;2023-03-20T07:58:33;18.50;;;16.67;;
6197;SDS011;3132;42.622;23.328;2023-03-20T08:00:59;16.53;;;14.80;;
6197;SDS011;3132;42.622;23.328;2023-03-20T08:03:24;20.97;;;16.27;;
6197;SDS011;3132;42.622;23.328;2023-03-20T08:05:50;15.13;;;13.83;;
6197;SDS011;3132;42.622;23.328;2023-03-20T08:08:15;27.40;;;15.80;;
6197;SDS011;3132;42.622;23.328;2023-03-20T08:10:40;19.30;;;16.10;;
6197;SDS011;3132;42.622;23.328;2023-03-20T08:13:06;18.07;;;13.50;;
6197;SDS011;3132;42.622;23.328;2023-03-20T08:15:31;15.07;;;13.53;;
6197;SDS011;3132;42.622;23.328;2023-03-20T08:17:57;19.00;;;14.37;;
6197;SDS011;3132;42.622;23.328;2023-03-20T08:20:23;15.97;;;14.30;;
6197;SDS011;3132;42.622;23.328;2023-03-20T08:22:48;18.03;;;14.40;;
6197;SDS011;3132;42.622;23.328;2023-03-20T08:25:14;15.83;;;14.13;;
6197;SDS011;3132;42.622;23.328;2023-03-20T08:27:40;16.97;;;15.07;;
6197;SDS011;3132;42.622;23.328;2023-03-20T08:30:06;16.57;;;14.80;;
6197;SDS011;3132;42.622;23.328;2023-03-20T08:32:34;25.40;;;15.43;;
6197;SDS011;3132;42.622;23.328;2023-03-20T08:35:00;15.43;;;13.93;;
6197;SDS011;3132;42.622;23.328;2023-03-20T08:37:26;19.67;;;15.07;;
6197;SDS011;3132;42.622;23.328;2023-03-20T08:39:52;18.30;;;16.17;;
6197;SDS011;3132;42.622;23.328;2023-03-20T08:42:17;17.23;;;14.30;;
6197;SDS011;3132;42.622;23.328;2023-03-20T08:44:43;18.27;;;16.20;;
6197;SDS011;3132;42.622;23.328;2023-03-20T08:47:09;16.50;;;14.87;;
6197;SDS011;3132;42.622;23.328;2023-03-20T08:49:36;18.47;;;15.70;;
6197;SDS011;3132;42.622;23.328;2023-03-20T08:52:01;18.07;;;16.03;;
6197;SDS011;3132;42.622;23.328;2023-03-20T08:54:27;18.73;;;16.80;;
6197;SDS011;3132;42.622;23.328;2023-03-20T08:56:52;23.90;;;17.17;;
6197;SDS011;3132;42.622;23.328;2023-03-20T08:59:17;23.17;;;16.03;;
6197;SDS011;3132;42.622;23.328;2023-03-20T09:01:44;17.80;;;15.80;;
6197;SDS011;3132;42.622;23.328;2023-03-20T09:04:10;18.67;;;16.83;;
6197;SDS011;3132;42.622;23.328;2023-03-20T09:06:37;16.50;;;14.80;;
6197;SDS011;3132;42.622;23.328;2023-03-20T09:09:02;20.03;;;14.63;;
6197;SDS011;3132;42.622;23.328;2023-03-20T09:11:28;17.83;;;14.97;;
6197;SDS011;3132;42.622;23.328;2023-03-20T09:13:54;23.03;;;16.50;;
6197;SDS011;3132;42.622;23.328;2023-03-20T09:16:19;16.40;;;14.63;;
6197;SDS011;3132;42.622;23.328;2023-03-20T09:18:45;19.63;;;14.90;;
6197;SDS011;3132;42.622;23.328;2023-03-20T09:21:10;18.27;;;14.40;;
6197;SDS011;3132;42.622;23.328;2023-03-20T09:23:36;19.90;;;16.73;;
6197;SDS011;3132;42.622;23.328;2023-03-20T09:26:01;25.43;;;16.47;;
6197;SDS011;3132;42.622;23.328;2023-03-20T09:28:26;20.37;;;16.23;;
6197;SDS011;3132;42.622;23.328;2023-03-20T09:30:55;18.13;;;15.93;;
6197;SDS011;3132;42.622;23.328;2023-03-20T09:33:22;16.73;;;14.87;;
6197;SDS011;3132;42.622;23.328;2023-03-20T09:35:48;18.37;;;15.63;;
6197;SDS011;3132;42.622;23.328;2023-03-20T09:38:13;27.90;;;16.23;;
6197;SDS011;3132;42.622;23.328;2023-03-20T09:40:47;20.03;;;14.70;;
6197;SDS011;3132;42.622;23.328;2023-03-20T09:43:26;18.17;;;15.80;;
6197;SDS011;3132;42.622;23.328;2023-03-20T09:54:06;20.10;;;17.40;;
6197;SDS011;3132;42.622;23.328;2023-03-20T09:56:39;21.07;;;16.47;;
6197;SDS011;3132;42.622;23.328;2023-03-20T09:59:05;25.40;;;16.50;;
6197;SDS011;3132;42.622;23.328;2023-03-20T10:01:38;21.30;;;16.83;;
6197;SDS011;3132;42.622;23.328;2023-03-20T10:04:10;25.77;;;16.47;;
6197;SDS011;3132;42.622;23.328;2023-03-20T10:06:36;21.07;;;17.77;;
6197;SDS011;3132;42.622;23.328;2023-03-20T10:09:05;21.20;;;17.23;;
6197;SDS011;3132;42.622;23.328;2023-03-20T10:17:18;19.37;;;16.83;;
6197;SDS011;3132;42.622;23.328;2023-03-20T10:19:58;28.23;;;17.40;;
6197;SDS011;3132;42.622;23.328;2023-03-20T10:25:07;24.87;;;17.40;;
6197;SDS011;3132;42.622;23.328;2023-03-20T10:27:39;26.07;;;16.10;;
6197;SDS011;3132;42.622;23.328;2023-03-20T10:38:44;21.50;;;17.57;;
6197;SDS011;3132;42.622;23.328;2023-03-20T10:41:17;26.23;;;18.57;;
6197;SDS011;3132;42.622;23.328;2023-03-20T10:43:46;23.00;;;16.37;;
6197;SDS011;3132;42.622;23.328;2023-03-20T10:46:15;32.00;;;18.40;;
6197;SDS011;3132;42.622;23.328;2023-03-20T10:51:59;22.80;;;17.90;;
6197;SDS011;3132;42.622;23.328;2023-03-20T10:54:30;26.37;;;16.63;;
6197;SDS011;3132;42.622;23.328;2023-03-20T10:56:59;26.10;;;18.40;;
6197;SDS011;3132;42.622;23.328;2023-03-20T10:59:27;22.63;;;17.00;;
6197;SDS011;3132;42.622;23.328;2023-03-20T11:01:57;25.50;;;16.33;;
6197;SDS011;3132;42.622;23.328;2023-03-20T11:04:23;22.87;;;15.17;;
6197;SDS011;3132;42.622;23.328;2023-03-20T11:06:54;28.13;;;17.20;;
6197;SDS011;3132;42.622;23.328;2023-03-20T11:09:42;22.23;;;16.37;;
6197;SDS011;3132;42.622;23.328;2023-03-20T11:12:18;19.33;;;16.40;;
6197;SDS011;3132;42.622;23.328;2023-03-20T11:14:44;20.70;;;14.77;;
6197;SDS011;3132;42.622;23.328;2023-03-20T11:17:09;19.63;;;16.13;;
6197;SDS011;3132;42.622;23.328;2023-03-20T11:19:37;20.73;;;15.30;;
6197;SDS011;3132;42.622;23.328;2023-03-20T11:22:08;23.03;;;17.37;;
6197;SDS011;3132;42.622;23.328;2023-03-20T11:24:50;24.73;;;17.07;;
6197;SDS011;3132;42.622;23.328;2023-03-20T11:27:32;22.20;;;16.47;;
6197;SDS011;3132;42.622;23.328;2023-03-20T11:29:59;21.93;;;16.20;;
6197;SDS011;3132;42.622;23.328;2023-03-20T11:32:29;19.87;;;15.43;;
6197;SDS011;3132;42.622;23.328;2023-03-20T11:35:10;23.40;;;16.30;;
6197;SDS011;3132;42.622;23.328;2023-03-20T11:37:44;22.07;;;17.13;;
6197;SDS011;3132;42.622;23.328;2023-03-20T11:42:37;23.63;;;16.23;;
6197;SDS011;3132;42.622;23.328;2023-03-20T11:45:03;18.03;;;15.90;;
6197;SDS011;3132;42.622;23.328;2023-03-20T11:47:37;20.13;;;16.07;;
6197;SDS011;3132;42.622;23.328;2023-03-20T11:50:04;26.57;;;16.77;;
6197;SDS011;3132;42.622;23.328;2023-03-20T11:52:34;22.20;;;17.13;;
6197;SDS011;3132;42.622;23.328;2023-03-20T11:55:04;20.70;;;15.57;;
6197;SDS011;3132;42.622;23.328;2023-03-20T11:57:46;19.87;;;15.10;;
6197;SDS011;3132;42.622;23.328;2023-03-20T12:00:19;20.40;;;16.27;;
6197;SDS011;3132;42.622;23.328;2023-03-20T12:02:47;17.40;;;15.60;;
6197;SDS011;3132;42.622;23.328;2023-03-20T12:05:26;19.97;;;16.70;;
6197;SDS011;3132;42.622;23.328;2023-03-20T12:08:00;19.47;;;14.90;;
6197;SDS011;3132;42.622;23.328;2023-03-20T12:10:37;18.30;;;16.57;;
6197;SDS011;3132;42.622;23.328;2023-03-20T12:13:17;19.23;;;16.53;;
6197;SDS011;3132;42.622;23.328;2023-03-20T12:15:51;17.57;;;15.67;;
6197;SDS011;3132;42.622;23.328;2023-03-20T12:18:25;24.90;;;15.37;;
6197;SDS011;3132;42.622;23.328;2023-03-20T12:23:36;16.87;;;14.77;;
6197;SDS011;3132;42.622;23.328;2023-03-20T12:29:04;16.60;;;14.83;;
6197;SDS011;3132;42.622;23.328;2023-03-20T12:32:09;20.43;;;15.63;;
6197;SDS011;3132;42.622;23.328;2023-03-20T12:34:32;18.43;;;15.47;;
6197;SDS011;3132;42.622;23.328;2023-03-20T12:37:12;20.13;;;14.57;;
6197;SDS011;3132;42.622;23.328;2023-03-20T12:39:47;17.03;;;14.80;;
6197;SDS011;3132;42.622;23.328;2023-03-20T12:45:04;17.77;;;14.00;;
6197;SDS011;3132;42.622;23.328;2023-03-20T12:50:39;20.53;;;13.63;;
6197;SDS011;3132;42.622;23.328;2023-03-20T12:58:58;16.53;;;14.30;;
6197;SDS011;3132;42.622;23.328;2023-03-20T13:07:21;15.67;;;13.47;;
6197;SDS011;3132;42.622;23.328;2023-03-20T13:10:20;17.70;;;14.50;;
6197;SDS011;3132;42.622;23.328;2023-03-20T13:21:48;14.80;;;13.30;;
6197;SDS011;3132;42.622;23.328;2023-03-20T13:35:22;22.47;;;12.23;;
6197;SDS011;3132;42.622;23.328;2023-03-20T13:38:00;13.80;;;10.97;;
6197;SDS011;3132;42.622;23.328;2023-03-20T13:40:36;13.80;;;12.50;;
6197;SDS011;3132;42.622;23.328;2023-03-20T13:48:46;12.30;;;10.10;;
6197;SDS011;3132;42.622;23.328;2023-03-20T13:51:30;10.73;;;9.63;;
6197;SDS011;3132;42.622;23.328;2023-03-20T14:05:00;13.63;;;12.20;;
6197;SDS011;3132;42.622;23.328;2023-03-20T14:07:36;15.57;;;11.33;;
6197;SDS011;3132;42.622;23.328;2023-03-20T14:12:50;14.10;;;11.77;;
6197;SDS011;3132;42.622;23.328;2023-03-20T14:15:36;12.87;;;11.53;;
6197;SDS011;3132;42.622;23.328;2023-03-20T14:18:04;13.47;;;12.37;;
6197;SDS011;3132;42.622;23.328;2023-03-20T14:20:42;15.47;;;11.70;;
6197;SDS011;3132;42.622;23.328;2023-03-20T14:23:16;14.83;;;12.07;;
6197;SDS011;3132;42.622;23.328;2023-03-20T14:25:44;12.80;;;11.43;;
6197;SDS011;3132;42.622;23.328;2023-03-20T14:35:45;12.23;;;11.03;;
6197;SDS011;3132;42.622;23.328;2023-03-20T14:46:05;13.33;;;11.97;;
6197;SDS011;3132;42.622;23.328;2023-03-20T14:48:41;13.30;;;11.33;;
6197;SDS011;3132;42.622;23.328;2023-03-20T14:51:19;13.60;;;11.90;;
6197;SDS011;3132;42.622;23.328;2023-03-20T14:56:45;11.17;;;10.03;;
6197;SDS011;3132;42.622;23.328;2023-03-20T14:59:11;17.37;;;11.33;;
6197;SDS011;3132;42.622;23.328;2023-03-20T15:01:44;12.87;;;11.43;;
6197;SDS011;3132;42.622;23.328;2023-03-20T15:06:46;13.80;;;12.53;;
6197;SDS011;3132;42.622;23.328;2023-03-20T15:09:15;13.93;;;12.63;;
6197;SDS011;3132;42.622;23.328;2023-03-20T15:11:44;21.37;;;15.10;;
6197;SDS011;3132;42.622;23.328;2023-03-20T15:14:12;20.43;;;15.03;;
6197;SDS011;3132;42.622;23.328;2023-03-20T15:16:44;17.10;;;12.60;;
6197;SDS011;3132;42.622;23.328;2023-03-20T15:19:16;12.70;;;11.30;;
6197;SDS011;3132;42.622;23.328;2023-03-20T15:21:43;20.67;;;11.17;;
6197;SDS011;3132;42.622;23.328;2023-03-20T15:24:25;13.53;;;11.10;;
6197;SDS011;3132;42.622;23.328;2023-03-20T15:26:53;13.13;;;10.50;;
6197;SDS011;3132;42.622;23.328;2023-03-20T15:29:21;17.17;;;11.83;;
6197;SDS011;3132;42.622;23.328;2023-03-20T15:31:53;12.63;;;11.40;;
6197;SDS011;3132;42.622;23.328;2023-03-20T15:34:21;14.23;;;11.60;;
6197;SDS011;3132;42.622;23.328;2023-03-20T15:36:50;12.90;;;11.57;;
6197;SDS011;3132;42.622;23.328;2023-03-20T15:39:21;16.73;;;12.43;;
6197;SDS011;3132;42.622;23.328;2023-03-20T15:41:53;12.83;;;11.73;;
6197;SDS011;3132;42.622;23.328;2023-03-20T15:46:53;16.20;;;12.53;;
6197;SDS011;3132;42.622;23.328;2023-03-20T15:49:22;13.60;;;12.37;;
6197;SDS011;3132;42.622;23.328;2023-03-20T15:51:49;19.33;;;13.03;;
6197;SDS011;3132;42.622;23.328;2023-03-20T15:54:16;12.97;;;11.40;;
6197;SDS011;3132;42.622;23.328;2023-03-20T15:56:43;12.03;;;10.90;;
6197;SDS011;3132;42.622;23.328;2023-03-20T15:59:12;13.40;;;11.37;;
6197;SDS011;3132;42.622;23.328;2023-03-20T16:01:40;12.97;;;11.47;;
6197;SDS011;3132;42.622;23.328;2023-03-20T16:04:05;12.30;;;11.20;;
6197;SDS011;3132;42.622;23.328;2023-03-20T16:06:33;14.77;;;13.17;;
6197;SDS011;3132;42.622;23.328;2023-03-20T16:08:59;12.03;;;10.93;;
6197;SDS011;3132;42.622;23.328;2023-03-20T16:11:36;18.80;;;13.10;;
6197;SDS011;3132;42.622;23.328;2023-03-20T16:14:04;14.20;;;12.37;;
6197;SDS011;3132;42.622;23.328;2023-03-20T16:16:31;13.70;;;12.33;;
6197;SDS011;3132;42.622;23.328;2023-03-20T16:19:02;13.17;;;11.10;;
6197;SDS011;3132;42.622;23.328;2023-03-20T16:21:29;13.57;;;11.53;;
6197;SDS011;3132;42.622;23.328;2023-03-20T16:23:57;11.30;;;10.30;;
6197;SDS011;3132;42.622;23.328;2023-03-20T16:26:25;12.87;;;10.87;;
6197;SDS011;3132;42.622;23.328;2023-03-20T16:29:00;14.07;;;11.23;;
6197;SDS011;3132;42.622;23.328;2023-03-20T16:34:07;12.67;;;11.47;;
6197;SDS011;3132;42.622;23.328;2023-03-20T16:36:47;11.17;;;10.37;;
6197;SDS011;3132;42.622;23.328;2023-03-20T16:41:44;13.30;;;10.60;;
6197;SDS011;3132;42.622;23.328;2023-03-20T16:44:17;11.77;;;10.67;;
6197;SDS011;3132;42.622;23.328;2023-03-20T16:49:47;10.83;;;9.87;;
6197;SDS011;3132;42.622;23.328;2023-03-20T16:52:15;10.67;;;9.87;;
6197;SDS011;3132;42.622;23.328;2023-03-20T16:54:45;9.53;;;8.93;;
6197;SDS011;3132;42.622;23.328;2023-03-20T16:57:14;11.53;;;10.57;;
6197;SDS011;3132;42.622;23.328;2023-03-20T16:59:42;11.33;;;10.23;;
6197;SDS011;3132;42.622;23.328;2023-03-20T17:02:11;9.77;;;9.13;;
6197;SDS011;3132;42.622;23.328;2023-03-20T17:04:45;9.90;;;9.20;;
6197;SDS011;3132;42.622;23.328;2023-03-20T17:07:13;12.27;;;11.17;;
6197;SDS011;3132;42.622;23.328;2023-03-20T17:09:57;11.13;;;10.17;;
6197;SDS011;3132;42.622;23.328;2023-03-20T17:12:23;10.67;;;9.63;;
6197;SDS011;3132;42.622;23.328;2023-03-20T17:14:50;10.87;;;9.97;;
6197;SDS011;3132;42.622;23.328;2023-03-20T17:17:18;11.23;;;10.10;;
6197;SDS011;3132;42.622;23.328;2023-03-20T17:19:45;11.63;;;10.57;;
6197;SDS011;3132;42.622;23.328;2023-03-20T17:22:14;11.03;;;10.23;;
6197;SDS011;3132;42.622;23.328;2023-03-20T17:24:42;11.57;;;10.67;;
6197;SDS011;3132;42.622;23.328;2023-03-20T17:27:08;13.50;;;10.57;;
6197;SDS011;3132;42.622;23.328;2023-03-20T17:29:36;13.20;;;12.07;;
6197;SDS011;3132;42.622;23.328;2023-03-20T17:32:07;13.03;;;11.70;;
6197;SDS011;3132;42.622;23.328;2023-03-20T17:34:36;12.73;;;11.10;;
6197;SDS011;3132;42.622;23.328;2023-03-20T17:37:02;14.30;;;12.80;;
6197;SDS011;3132;42.622;23.328;2023-03-20T17:39:27;12.80;;;11.30;;
6197;SDS011;3132;42.622;23.328;2023-03-20T17:41:54;11.57;;;10.63;;
6197;SDS011;3132;42.622;23.328;2023-03-20T17:44:19;10.27;;;9.57;;
6197;SDS011;3132;42.622;23.328;2023-03-20T17:46:45;11.27;;;10.13;;
6197;SDS011;3132;42.622;23.328;2023-03-20T17:49:12;11.17;;;10.10;;